Time;durP1;ratioP1;P1;durP2;ratioP2;P2;SDS_P1;SDS_P2;PMS_P1;PMS_P2;Temp;Humidity;BMP_temperature;BMP_pressure;BME280_temperature;BME280_humidity;BME280_pressure;Samples;Min_cycle;Max_cycle;Signal;HPM_P1;HPM_P2
2023/04/26 00:05:20;;;;;;;9.10;2.83;;;6.70;99.40;;;;;;10380927;28;20239;-82
2023/04/26 00:10:41;;;;;;;8.07;3.03;;;6.60;99.90;;;;;;10385976;28;20230;-82
2023/04/26 00:16:04;;;;;;;9.83;2.87;;;6.60;99.90;;;;;;10421502;28;20384;-82
2023/04/26 00:21:25;;;;;;;8.17;3.17;;;6.60;99.90;;;;;;10393713;28;20211;-81
2023/04/26 00:26:46;;;;;;;11.73;2.90;;;6.60;99.90;;;;;;10394085;28;20221;-84
2023/04/26 00:32:08;;;;;;;8.10;2.30;;;6.60;99.90;;;;;;10398300;28;20278;-82
2023/04/26 00:37:30;;;;;;;10.90;2.27;;;6.60;99.90;;;;;;10407024;28;20199;-82
2023/04/26 00:42:57;;;;;;;10.80;2.83;;;6.50;99.90;;;;;;10381483;28;20223;-82
2023/04/26 00:48:19;;;;;;;9.37;2.50;;;6.60;99.90;;;;;;10353226;28;20223;-82
2023/04/26 00:53:42;;;;;;;10.80;2.43;;;6.50;99.90;;;;;;10403107;28;20207;-82
2023/04/26 00:59:03;;;;;;;10.80;2.87;;;6.60;99.90;;;;;;10412320;28;20198;-82
2023/04/26 01:04:26;;;;;;;10.57;3.20;;;6.60;99.90;;;;;;10393823;28;20248;-81
2023/04/26 01:09:49;;;;;;;7.77;2.13;;;6.60;99.90;;;;;;10395724;28;20313;-82
2023/04/26 01:15:11;;;;;;;10.77;2.30;;;6.50;99.90;;;;;;10427714;28;20219;-83
2023/04/26 01:20:33;;;;;;;8.37;2.07;;;6.50;99.90;;;;;;10397136;28;20208;-82
2023/04/26 01:25:55;;;;;;;7.20;2.03;;;6.50;99.90;;;;;;10389595;28;20387;-82
2023/04/26 01:31:16;;;;;;;8.17;2.17;;;6.50;99.90;;;;;;10408690;28;20205;-82
2023/04/26 01:36:37;;;;;;;11.50;2.23;;;6.40;99.90;;;;;;10413087;28;20202;-82
2023/04/26 01:41:59;;;;;;;13.63;2.63;;;6.30;99.90;;;;;;10404952;28;20203;-82
2023/04/26 01:47:20;;;;;;;6.87;2.33;;;6.30;99.90;;;;;;10345117;28;20424;-82
2023/04/26 01:52:41;;;;;;;9.07;2.53;;;6.30;99.90;;;;;;10378186;28;20381;-82
2023/04/26 01:58:03;;;;;;;12.80;2.93;;;6.30;99.90;;;;;;10387929;28;20204;-82
2023/04/26 02:03:25;;;;;;;9.20;2.40;;;6.10;99.90;;;;;;10411257;28;20396;-82
2023/04/26 02:08:48;;;;;;;8.63;2.30;;;6.00;99.90;;;;;;10384363;28;20237;-82
2023/04/26 02:14:09;;;;;;;7.47;2.27;;;5.90;99.90;;;;;;10351735;28;20207;-81
2023/04/26 02:19:31;;;;;;;6.93;2.13;;;5.80;99.90;;;;;;10385064;28;20407;-82
2023/04/26 02:24:52;;;;;;;10.57;2.43;;;5.70;99.90;;;;;;10397214;28;20284;-82
2023/04/26 02:30:20;;;;;;;10.70;2.63;;;5.70;99.90;;;;;;10413988;28;20194;-82
2023/04/26 02:35:41;;;;;;;12.13;2.70;;;5.60;99.90;;;;;;10438444;28;20213;-82
2023/04/26 02:41:04;;;;;;;6.63;2.27;;;5.60;99.90;;;;;;10405509;28;20197;-82
2023/04/26 02:46:26;;;;;;;9.30;2.43;;;5.50;99.90;;;;;;10438129;28;20230;-81
2023/04/26 02:51:47;;;;;;;8.97;2.50;;;5.40;99.90;;;;;;10431975;28;20231;-81
2023/04/26 02:57:09;;;;;;;7.07;2.10;;;5.50;99.90;;;;;;10342304;28;20209;-82
2023/04/26 03:02:31;;;;;;;8.50;2.50;;;5.60;99.90;;;;;;10391330;28;20229;-83
2023/04/26 03:07:52;;;;;;;10.90;2.50;;;5.60;99.90;;;;;;10396236;28;20416;-82
2023/04/26 03:13:14;;;;;;;11.10;2.47;;;5.60;99.90;;;;;;10418030;28;20284;-82
2023/04/26 03:18:36;;;;;;;9.40;2.60;;;5.60;99.90;;;;;;10410680;28;20245;-82
2023/04/26 03:23:58;;;;;;;6.53;2.03;;;5.60;99.90;;;;;;10409944;28;20230;-82
2023/04/26 03:29:20;;;;;;;10.43;2.20;;;5.70;99.90;;;;;;10394339;28;20452;-82
2023/04/26 03:34:43;;;;;;;15.43;2.93;;;5.70;99.90;;;;;;10429227;28;20251;-82
2023/04/26 03:40:08;;;;;;;8.67;2.00;;;5.80;99.90;;;;;;10406666;28;20201;-81
2023/04/26 03:45:30;;;;;;;11.27;2.40;;;5.70;99.90;;;;;;10381040;28;20233;-82
2023/04/26 03:50:51;;;;;;;8.33;2.50;;;5.70;99.90;;;;;;10382585;28;20195;-82
2023/04/26 03:56:12;;;;;;;7.80;2.47;;;5.80;99.90;;;;;;10394790;28;20205;-82
2023/04/26 04:01:35;;;;;;;15.33;3.13;;;5.70;99.90;;;;;;10375569;28;20199;-81
2023/04/26 04:06:58;;;;;;;9.33;1.77;;;5.80;99.90;;;;;;10361534;28;20537;-82
2023/04/26 04:12:21;;;;;;;6.40;1.90;;;5.70;99.90;;;;;;10363415;28;20440;-82
2023/04/26 04:17:44;;;;;;;7.43;2.07;;;5.80;99.90;;;;;;10385401;28;20228;-82
2023/04/26 04:23:06;;;;;;;12.40;3.00;;;5.80;99.90;;;;;;10378134;28;20264;-82
2023/04/26 04:28:29;;;;;;;7.50;2.13;;;5.90;99.90;;;;;;10393901;28;20381;-82
2023/04/26 04:33:50;;;;;;;13.57;3.50;;;5.90;99.90;;;;;;10392876;28;20211;-82
2023/04/26 04:39:14;;;;;;;11.43;2.83;;;6.00;99.90;;;;;;10357224;28;20207;-82
2023/04/26 04:44:38;;;;;;;11.33;2.50;;;6.00;99.90;;;;;;10439946;28;20252;-82
2023/04/26 04:50:00;;;;;;;9.80;2.73;;;6.10;99.90;;;;;;10436418;28;20199;-82
2023/04/26 04:55:22;;;;;;;15.57;2.87;;;6.00;99.90;;;;;;10428626;28;20220;-81
2023/04/26 05:00:45;;;;;;;11.83;2.23;;;6.10;99.90;;;;;;10418219;28;20228;-81
2023/04/26 05:06:14;;;;;;;6.93;1.80;;;6.10;99.90;;;;;;10405063;28;20220;-81
2023/04/26 05:11:36;;;;;;;15.57;2.30;;;6.10;99.90;;;;;;10377782;28;20209;-81
2023/04/26 05:16:59;;;;;;;6.53;2.07;;;6.00;99.90;;;;;;10387284;28;20398;-81
2023/04/26 05:22:21;;;;;;;11.90;2.37;;;6.00;99.90;;;;;;10381156;28;20222;-81
2023/04/26 05:27:44;;;;;;;9.10;2.60;;;6.00;99.90;;;;;;10385880;28;20450;-82
2023/04/26 05:33:29;;;;;;;8.70;2.10;;;6.10;99.90;;;;;;10366342;28;20241;-82
2023/04/26 05:39:06;;;;;;;8.97;2.53;;;6.10;99.90;;;;;;10380274;28;20193;-82
2023/04/26 05:44:27;;;;;;;10.60;5.03;;;6.20;99.90;;;;;;10355510;28;20604;-83
2023/04/26 05:49:49;;;;;;;8.60;3.13;;;6.30;99.90;;;;;;10400700;28;20289;-83
2023/04/26 05:55:12;;;;;;;10.20;2.50;;;6.40;99.90;;;;;;10347012;28;20209;-82
2023/04/26 06:00:34;;;;;;;10.27;2.63;;;6.30;99.90;;;;;;10356939;28;20527;-81
2023/04/26 06:05:55;;;;;;;10.73;2.50;;;6.30;99.90;;;;;;10425328;28;20233;-82
2023/04/26 06:11:17;;;;;;;10.77;2.40;;;6.40;99.90;;;;;;10419573;28;20224;-82
2023/04/26 06:16:39;;;;;;;9.83;2.00;;;6.40;99.90;;;;;;10384161;28;20198;-82
2023/04/26 06:22:00;;;;;;;5.70;1.67;;;6.30;99.90;;;;;;10423179;28;20198;-82
2023/04/26 06:27:22;;;;;;;7.90;1.97;;;6.40;99.90;;;;;;10397392;28;20218;-82
2023/04/26 06:32:46;;;;;;;9.07;2.17;;;6.50;99.90;;;;;;10406270;28;20208;-82
2023/04/26 06:38:08;;;;;;;7.57;2.30;;;6.60;99.90;;;;;;10410826;28;20287;-81
2023/04/26 06:43:30;;;;;;;6.87;1.70;;;6.60;99.90;;;;;;10423878;28;20208;-81
2023/04/26 06:48:55;;;;;;;8.40;2.73;;;6.70;99.90;;;;;;10353834;28;20213;-83
2023/04/26 06:54:18;;;;;;;9.40;2.17;;;6.60;99.90;;;;;;10358370;28;20199;-82
2023/04/26 06:59:40;;;;;;;8.30;2.73;;;6.80;99.90;;;;;;10342055;28;20577;-82
2023/04/26 07:05:01;;;;;;;12.57;2.57;;;6.90;99.90;;;;;;10395849;28;20245;-82
2023/04/26 07:10:23;;;;;;;7.60;1.80;;;6.90;99.90;;;;;;10395504;28;20251;-82
2023/04/26 07:15:44;;;;;;;8.03;2.10;;;7.10;99.90;;;;;;10406979;28;20211;-83
2023/04/26 07:21:06;;;;;;;6.60;1.90;;;7.10;99.90;;;;;;10398937;28;20199;-83
2023/04/26 07:26:28;;;;;;;8.67;2.33;;;7.00;99.90;;;;;;10363401;28;20246;-89
2023/04/26 07:31:50;;;;;;;5.27;1.87;;;7.00;99.80;;;;;;10402774;28;20235;-82
2023/04/26 07:37:11;;;;;;;5.57;2.23;;;6.90;99.90;;;;;;10416268;28;20256;-81
2023/04/26 07:42:33;;;;;;;10.67;2.70;;;6.70;99.90;;;;;;10448847;28;20210;-86
2023/04/26 07:47:54;;;;;;;8.23;1.70;;;6.70;99.90;;;;;;10428384;28;20312;-83
2023/04/26 07:53:15;;;;;;;5.20;1.97;;;6.50;99.90;;;;;;10402868;28;20234;-82
2023/04/26 07:58:40;;;;;;;8.50;2.33;;;6.40;99.90;;;;;;10417047;28;20196;-80
2023/04/26 08:04:02;;;;;;;16.87;4.40;;;6.20;99.90;;;;;;10449103;28;20512;-81
2023/04/26 08:09:24;;;;;;;12.07;3.90;;;6.00;99.90;;;;;;10402328;28;20244;-82
2023/04/26 08:14:45;;;;;;;7.57;3.30;;;6.10;99.90;;;;;;10405518;28;20192;-82
2023/04/26 08:20:08;;;;;;;10.53;2.13;;;6.30;99.90;;;;;;10453137;28;20205;-81
2023/04/26 08:25:30;;;;;;;5.97;2.20;;;6.50;99.90;;;;;;10445614;28;20319;-82
2023/04/26 08:30:51;;;;;;;10.67;2.40;;;6.60;99.90;;;;;;10453441;28;20299;-83
2023/04/26 08:36:12;;;;;;;11.00;2.10;;;6.60;99.90;;;;;;10493254;28;20295;-82
2023/04/26 08:41:43;;;;;;;9.53;2.43;;;6.50;99.90;;;;;;10448982;28;20210;-81
2023/04/26 08:47:37;;;;;;;4.87;1.53;;;6.40;99.90;;;;;;10418824;28;20559;-82
2023/04/26 08:52:58;;;;;;;14.13;5.30;;;6.40;99.90;;;;;;10421111;28;20267;-82
2023/04/26 08:58:20;;;;;;;14.13;6.23;;;6.40;99.90;;;;;;10445226;28;20208;-83
2023/04/26 09:03:42;;;;;;;7.90;2.27;;;6.30;99.90;;;;;;10467017;28;20345;-82
2023/04/26 09:09:08;;;;;;;7.37;2.10;;;6.40;99.90;;;;;;10448203;28;20262;-85
2023/04/26 09:14:29;;;;;;;7.53;2.37;;;6.50;99.90;;;;;;10449341;28;20204;-84
2023/04/26 09:19:51;;;;;;;9.27;2.10;;;6.50;99.90;;;;;;10436170;28;20209;-81
2023/04/26 09:25:14;;;;;;;8.20;2.20;;;6.30;99.90;;;;;;10445866;28;20568;-83
2023/04/26 09:30:38;;;;;;;9.90;3.67;;;6.20;99.90;;;;;;10448351;28;20271;-84
2023/04/26 09:36:12;;;;;;;12.90;3.20;;;6.40;99.90;;;;;;10434575;28;20382;-84
2023/04/26 09:41:45;;;;;;;8.17;2.53;;;6.80;99.90;;;;;;10425311;28;20211;-84
2023/04/26 09:47:09;;;;;;;10.13;2.40;;;6.80;99.90;;;;;;10406840;28;20234;-83
2023/04/26 09:52:41;;;;;;;8.53;2.23;;;7.00;99.90;;;;;;10415815;28;20245;-83
2023/04/26 09:58:09;;;;;;;11.70;3.00;;;7.10;99.90;;;;;;10403704;28;20450;-85
2023/04/26 10:03:33;;;;;;;10.07;2.10;;;7.20;98.60;;;;;;10448970;28;20216;-83
2023/04/26 10:08:56;;;;;;;10.70;2.50;;;7.40;99.20;;;;;;10434450;28;20241;-82
2023/04/26 10:14:20;;;;;;;8.63;3.10;;;7.60;96.90;;;;;;10424957;28;20309;-83
2023/04/26 10:19:52;;;;;;;9.50;2.30;;;7.90;93.40;;;;;;10449167;28;20216;-85
2023/04/26 10:25:21;;;;;;;7.33;2.10;;;8.30;78.30;;;;;;10418431;28;20234;-84
2023/04/26 10:30:55;;;;;;;6.70;1.47;;;8.80;77.10;;;;;;10436140;28;20206;-85
2023/04/26 10:36:17;;;;;;;7.63;2.03;;;9.20;56.50;;;;;;10419761;28;20215;-84
2023/04/26 10:41:39;;;;;;;12.43;2.70;;;9.40;43.30;;;;;;10428715;28;20226;-85
2023/04/26 10:47:00;;;;;;;13.53;4.17;;;9.40;42.80;;;;;;10403391;28;20412;-84
2023/04/26 10:52:22;;;;;;;13.57;5.10;;;8.90;42.50;;;;;;10393090;28;20207;-84
2023/04/26 10:57:48;;;;;;;8.97;2.30;;;8.80;41.00;;;;;;10430467;28;20295;-84
2023/04/26 11:03:11;;;;;;;9.03;1.97;;;9.20;32.20;;;;;;10427537;28;20292;-85
2023/04/26 11:08:34;;;;;;;4.70;1.70;;;9.50;27.00;;;;;;10429302;28;20562;-84
2023/04/26 11:13:56;;;;;;;5.77;1.70;;;10.30;26.10;;;;;;10431831;28;20202;-84
2023/04/26 11:19:17;;;;;;;6.60;1.60;;;10.70;23.00;;;;;;10430299;28;20244;-82
2023/04/26 11:24:40;;;;;;;8.90;3.57;;;10.30;20.90;;;;;;10407704;28;20231;-86
2023/04/26 11:30:05;;;;;;;4.67;1.90;;;9.90;20.80;;;;;;10404567;28;20252;-85
2023/04/26 11:35:28;;;;;;;6.87;2.47;;;10.50;19.60;;;;;;10439039;28;20228;-84
2023/04/26 11:41:00;;;;;;;9.33;1.97;;;10.00;16.90;;;;;;10445139;28;20201;-85
2023/04/26 11:46:23;;;;;;;6.33;1.90;;;10.40;17.60;;;;;;10427424;28;20313;-84
2023/04/26 11:51:48;;;;;;;11.50;1.70;;;10.50;16.10;;;;;;10418426;28;20208;-83
2023/04/26 11:57:14;;;;;;;4.80;1.83;;;10.60;17.80;;;;;;10394861;28;20203;-84
2023/04/26 12:02:37;;;;;;;4.93;1.37;;;11.20;16.40;;;;;;10390483;28;20311;-86
2023/04/26 12:07:59;;;;;;;4.57;1.47;;;10.80;14.20;;;;;;10418059;28;20238;-84
2023/04/26 12:13:20;;;;;;;8.60;1.70;;;10.30;14.90;;;;;;10443855;28;20208;-84
2023/04/26 12:18:51;;;;;;;6.50;1.80;;;10.00;17.30;;;;;;10457817;28;20207;-85
2023/04/26 12:24:25;;;;;;;4.70;1.63;;;10.00;16.00;;;;;;10429298;28;20206;-84
2023/04/26 12:29:46;;;;;;;8.73;1.33;;;10.50;13.20;;;;;;10431137;28;20216;-91
2023/04/26 12:35:08;;;;;;;8.40;2.10;;;11.00;12.50;;;;;;10430571;28;20204;-82
2023/04/26 12:40:30;;;;;;;9.63;1.90;;;11.00;11.80;;;;;;10430594;28;20210;-85
2023/04/26 12:45:52;;;;;;;6.60;1.83;;;11.00;11.00;;;;;;10414926;28;20230;-84
2023/04/26 12:51:13;;;;;;;10.70;1.70;;;11.50;10.60;;;;;;10431107;28;20213;-85
2023/04/26 12:56:39;;;;;;;3.87;1.30;;;11.80;9.90;;;;;;10450119;28;20547;-84
2023/04/26 13:02:02;;;;;;;7.90;2.43;;;11.40;1.00;;;;;;10432068;28;20207;-88
2023/04/26 13:07:24;;;;;;;5.40;1.60;;;11.90;1.00;;;;;;10431093;28;20246;-85
2023/04/26 13:12:45;;;;;;;5.93;2.00;;;12.30;1.00;;;;;;10430564;28;20497;-84
2023/04/26 13:18:07;;;;;;;14.17;1.77;;;12.00;1.00;;;;;;10428522;28;20211;-84
2023/04/26 13:23:28;;;;;;;4.60;1.70;;;11.70;99.90;;;;;;10432492;28;20438;-85
2023/04/26 13:28:50;;;;;;;7.80;1.87;;;11.80;99.90;;;;;;10435192;28;20288;-85
2023/04/26 13:34:11;;;;;;;9.97;1.83;;;12.10;99.90;;;;;;10435524;28;20215;-82
2023/04/26 13:39:33;;;;;;;7.40;2.53;;;12.10;99.90;;;;;;10439532;28;20203;-82
2023/04/26 13:44:55;;;;;;;4.00;1.70;;;11.60;99.90;;;;;;10450945;28;20222;-84
2023/04/26 13:50:17;;;;;;;9.20;1.70;;;11.20;99.90;;;;;;10452356;28;20245;-84
2023/04/26 13:55:38;;;;;;;7.43;1.77;;;11.30;99.90;;;;;;10431445;28;20265;-84
2023/04/26 14:01:01;;;;;;;6.73;1.67;;;11.50;99.90;;;;;;10426565;28;20211;-87
2023/04/26 14:06:22;;;;;;;5.07;1.50;;;11.50;99.90;;;;;;10424294;28;20249;-83
2023/04/26 14:11:43;;;;;;;6.47;1.27;;;11.50;99.90;;;;;;10434269;28;20229;-83
2023/04/26 14:17:07;;;;;;;4.40;1.57;;;11.40;99.90;;;;;;10432893;28;20239;-84
2023/04/26 14:22:28;;;;;;;6.63;1.07;;;11.60;99.90;;;;;;10433501;28;20212;-83
2023/04/26 14:27:50;;;;;;;3.57;1.53;;;11.60;99.90;;;;;;10467370;28;20226;-83
2023/04/26 14:33:12;;;;;;;6.50;1.57;;;11.60;99.90;;;;;;10418586;28;20221;-88
2023/04/26 14:38:34;;;;;;;5.03;1.23;;;11.30;99.90;;;;;;10460343;28;20198;-81
2023/04/26 14:43:55;;;;;;;4.50;1.70;;;10.70;99.90;;;;;;10435758;28;20198;-87
2023/04/26 14:49:17;;;;;;;6.83;1.67;;;10.70;99.90;;;;;;10417933;28;20238;-84
2023/04/26 14:54:38;;;;;;;3.57;1.37;;;10.60;99.90;;;;;;10430949;28;20519;-85
2023/04/26 15:00:05;;;;;;;10.17;1.80;;;10.60;99.90;;;;;;10415775;28;20195;-82
2023/04/26 15:05:31;;;;;;;13.87;2.63;;;10.50;99.90;;;;;;10436555;28;20294;-84
2023/04/26 15:10:52;;;;;;;10.90;3.50;;;10.30;99.90;;;;;;10425497;28;20470;-83
2023/04/26 15:16:13;;;;;;;7.17;2.40;;;10.30;99.90;;;;;;10399321;28;20489;-84
2023/04/26 15:21:36;;;;;;;12.13;2.30;;;10.50;99.90;;;;;;10433682;28;20202;-84
2023/04/26 15:26:58;;;;;;;9.03;2.87;;;10.50;99.90;;;;;;10420813;28;20300;-84
2023/04/26 15:32:19;;;;;;;5.10;2.00;;;10.30;99.90;;;;;;10454713;28;20236;-84
2023/04/26 15:37:42;;;;;;;6.43;1.87;;;10.20;99.90;;;;;;10409143;28;20199;-84
2023/04/26 15:43:04;;;;;;;7.67;2.07;;;10.00;99.90;;;;;;10422897;28;20194;-85
2023/04/26 15:48:25;;;;;;;4.33;1.60;;;9.80;99.90;;;;;;10421340;28;20272;-84
2023/04/26 15:53:48;;;;;;;6.13;1.90;;;9.60;99.90;;;;;;10448824;28;20385;-84
2023/04/26 15:59:10;;;;;;;10.33;1.93;;;9.40;99.90;;;;;;10435555;28;20397;-85
2023/04/26 16:04:31;;;;;;;3.93;1.70;;;9.50;99.90;;;;;;10457467;28;20518;-84
2023/04/26 16:09:53;;;;;;;4.63;1.10;;;9.50;99.90;;;;;;10435707;28;20310;-85
2023/04/26 16:15:14;;;;;;;3.07;1.13;;;9.50;99.90;;;;;;10435901;28;20192;-84
2023/04/26 16:20:36;;;;;;;5.47;1.63;;;9.50;99.90;;;;;;10420227;28;20200;-83
2023/04/26 16:25:57;;;;;;;5.60;1.30;;;9.40;99.90;;;;;;10435619;28;20225;-84
2023/04/26 16:31:19;;;;;;;5.67;1.60;;;9.40;99.90;;;;;;10435272;28;20270;-84
2023/04/26 16:36:40;;;;;;;7.60;2.33;;;9.20;99.90;;;;;;10408107;28;20210;-85
2023/04/26 16:42:02;;;;;;;6.70;2.13;;;9.10;99.90;;;;;;10440649;28;20198;-84
2023/04/26 16:47:24;;;;;;;4.83;1.70;;;8.90;99.90;;;;;;10452057;28;20247;-84
2023/04/26 16:52:45;;;;;;;6.30;1.43;;;8.80;99.90;;;;;;10461773;28;20400;-84
2023/04/26 16:58:06;;;;;;;8.07;1.70;;;8.70;99.90;;;;;;10456728;28;20388;-84
2023/04/26 17:03:29;;;;;;;9.67;2.23;;;8.60;99.90;;;;;;10440673;28;20216;-83
2023/04/26 17:08:51;;;;;;;15.17;2.93;;;8.50;99.90;;;;;;10420277;28;20254;-84
2023/04/26 17:14:12;;;;;;;9.37;2.30;;;8.60;99.90;;;;;;10428763;28;20204;-81
2023/04/26 17:19:33;;;;;;;5.83;1.90;;;8.50;99.90;;;;;;10442247;28;20207;-83
2023/04/26 17:24:55;;;;;;;7.60;2.30;;;8.40;99.90;;;;;;10442088;28;20348;-84
2023/04/26 17:30:17;;;;;;;3.90;1.37;;;8.40;99.90;;;;;;10441799;28;20209;-84
2023/04/26 17:35:38;;;;;;;9.13;3.30;;;8.30;99.90;;;;;;10395910;28;20394;-83
2023/04/26 17:40:59;;;;;;;4.03;2.20;;;8.30;99.90;;;;;;10455075;28;20220;-84
2023/04/26 17:46:21;;;;;;;6.23;1.97;;;8.30;99.90;;;;;;10450138;28;20243;-84
2023/04/26 17:51:42;;;;;;;21.47;11.67;;;8.20;99.90;;;;;;10454166;28;20205;-84
2023/04/26 17:57:05;;;;;;;34.83;21.47;;;8.20;99.90;;;;;;10440723;28;20391;-84
2023/04/26 18:02:27;;;;;;;16.87;10.30;;;8.10;99.90;;;;;;10440066;28;20286;-84
2023/04/26 18:07:48;;;;;;;5.93;3.03;;;8.10;99.90;;;;;;10453520;28;20248;-84
2023/04/26 18:13:10;;;;;;;5.90;2.47;;;8.00;99.90;;;;;;10448530;28;20215;-83
2023/04/26 18:18:31;;;;;;;5.97;1.73;;;8.00;99.90;;;;;;10472560;28;20389;-83
2023/04/26 18:23:53;;;;;;;4.50;1.30;;;7.90;99.90;;;;;;10439352;28;20198;-82
2023/04/26 18:29:14;;;;;;;2.93;1.40;;;7.80;99.90;;;;;;10408104;28;20241;-84
2023/04/26 18:34:35;;;;;;;7.53;5.07;;;7.80;99.90;;;;;;10412274;28;20200;-82
2023/04/26 18:39:57;;;;;;;78.27;47.97;;;7.70;1.00;;;;;;10438561;28;20252;-84
2023/04/26 18:45:18;;;;;;;14.63;9.70;;;7.70;1.00;;;;;;10411204;28;20223;-84
2023/04/26 18:50:39;;;;;;;6.87;2.70;;;7.60;1.00;;;;;;10429087;28;20207;-85
2023/04/26 18:56:01;;;;;;;2.33;1.70;;;7.60;1.00;;;;;;10441061;28;20211;-84
2023/04/26 19:01:22;;;;;;;5.97;2.17;;;7.50;1.00;;;;;;10437942;28;20196;-83
2023/04/26 19:06:44;;;;;;;4.97;2.10;;;7.50;1.00;;;;;;10446893;28;20255;-84
2023/04/26 19:12:05;;;;;;;4.93;1.97;;;7.50;1.00;;;;;;10461144;28;20207;-83
2023/04/26 19:17:28;;;;;;;7.73;3.03;;;7.50;1.00;;;;;;10442528;28;20493;-84
2023/04/26 19:22:49;;;;;;;33.10;11.57;;;7.30;1.00;;;;;;10451042;28;20552;-82
2023/04/26 19:28:10;;;;;;;50.97;19.20;;;7.30;1.00;;;;;;10449308;28;20534;-83
2023/04/26 19:33:32;;;;;;;56.57;20.83;;;7.20;1.00;;;;;;10451050;28;20190;-84
2023/04/26 19:38:53;;;;;;;56.57;20.70;;;7.10;1.00;;;;;;10429472;28;20208;-84
2023/04/26 19:44:15;;;;;;;52.87;19.37;;;7.00;1.00;;;;;;10428660;28;20499;-83
2023/04/26 19:49:36;;;;;;;41.60;15.70;;;7.00;1.00;;;;;;10409400;28;20229;-83
2023/04/26 19:54:57;;;;;;;31.63;11.93;;;6.90;1.00;;;;;;10413154;28;20234;-84
2023/04/26 20:00:18;;;;;;;32.77;10.37;;;6.80;1.00;;;;;;10414108;28;20210;-85
2023/04/26 20:05:40;;;;;;;62.47;23.33;;;6.70;1.00;;;;;;10394883;28;20407;-85
2023/04/26 20:11:03;;;;;;;48.73;18.37;;;6.60;1.00;;;;;;10408350;28;20483;-84
2023/04/26 20:16:24;;;;;;;45.13;16.30;;;6.60;1.00;;;;;;10421577;28;20249;-83
2023/04/26 20:21:46;;;;;;;27.20;10.17;;;6.50;1.00;;;;;;10437379;28;20226;-84
2023/04/26 20:27:07;;;;;;;13.23;4.33;;;6.50;1.00;;;;;;10460736;28;20234;-84
2023/04/26 20:32:28;;;;;;;5.60;2.60;;;6.50;1.00;;;;;;10463625;28;20194;-83
2023/04/26 20:37:50;;;;;;;5.27;2.67;;;6.40;1.00;;;;;;10477283;28;20501;-84
2023/04/26 20:43:11;;;;;;;5.43;2.07;;;6.40;1.00;;;;;;10434276;28;20191;-83
2023/04/26 20:48:33;;;;;;;20.57;12.03;;;6.30;1.00;;;;;;10435215;28;20254;-84
2023/04/26 20:53:54;;;;;;;35.63;20.50;;;6.30;1.00;;;;;;10429475;28;20203;-84
2023/04/26 20:59:15;;;;;;;17.97;8.53;;;6.30;1.00;;;;;;10467893;28;20520;-84
2023/04/26 21:04:40;;;;;;;4.27;2.87;;;6.30;1.00;;;;;;10462800;28;20221;-84
2023/04/26 21:10:02;;;;;;;8.97;3.50;;;6.20;1.00;;;;;;10443006;28;20604;-84
2023/04/26 21:15:24;;;;;;;11.80;5.67;;;6.20;4.70;;;;;;10462562;28;20193;-84
2023/04/26 21:20:45;;;;;;;12.30;6.47;;;6.20;44.10;;;;;;10448014;28;20497;-84
2023/04/26 21:26:07;;;;;;;11.00;5.77;;;6.10;55.60;;;;;;10468212;28;20230;-84
2023/04/26 21:31:28;;;;;;;7.57;4.57;;;6.00;99.90;;;;;;10468951;28;20240;-84
2023/04/26 21:36:49;;;;;;;7.77;4.63;;;6.00;99.90;;;;;;10482672;28;20273;-82
2023/04/26 21:42:10;;;;;;;5.87;3.53;;;6.00;99.90;;;;;;10483570;28;20209;-84
2023/04/26 21:47:32;;;;;;;7.33;3.43;;;6.00;99.90;;;;;;10496984;28;20642;-83
2023/04/26 21:52:53;;;;;;;8.13;2.90;;;6.00;99.90;;;;;;10454126;28;20203;-84
2023/04/26 21:58:15;;;;;;;7.80;3.60;;;6.00;99.90;;;;;;10462971;28;20542;-83
2023/04/26 22:03:37;;;;;;;11.90;3.67;;;5.90;99.90;;;;;;10454498;28;20321;-84
2023/04/26 22:08:58;;;;;;;10.47;4.07;;;5.80;99.90;;;;;;10439434;28;20253;-84
2023/04/26 22:14:19;;;;;;;13.13;4.37;;;5.80;99.90;;;;;;10454984;28;20189;-83
2023/04/26 22:19:41;;;;;;;22.37;7.50;;;5.70;1.00;;;;;;10439900;28;20202;-83
2023/04/26 22:25:02;;;;;;;26.27;8.07;;;5.80;1.00;;;;;;10452729;28;20224;-84
2023/04/26 22:30:24;;;;;;;22.73;6.67;;;5.90;1.00;;;;;;10445766;28;20427;-84
2023/04/26 22:35:46;;;;;;;12.23;5.27;;;5.60;1.00;;;;;;10414847;28;20212;-83
2023/04/26 22:41:07;;;;;;;13.50;4.70;;;5.50;1.00;;;;;;10446849;28;20210;-84
2023/04/26 22:46:29;;;;;;;17.43;5.50;;;5.50;1.00;;;;;;10400080;28;20290;-83
2023/04/26 22:51:51;;;;;;;16.20;5.70;;;5.40;1.00;;;;;;10424321;28;20278;-83
2023/04/26 22:57:18;;;;;;;13.43;4.67;;;5.40;1.00;;;;;;10478579;28;20286;-83
2023/04/26 23:02:39;;;;;;;9.83;3.53;;;5.30;1.00;;;;;;10437950;28;20206;-84
2023/04/26 23:08:01;;;;;;;11.00;3.80;;;5.40;1.00;;;;;;10459224;28;20255;-83
2023/04/26 23:13:28;;;;;;;8.80;3.13;;;5.30;45.50;;;;;;10396903;28;20206;-83
2023/04/26 23:18:49;;;;;;;10.40;4.37;;;5.30;99.90;;;;;;10415414;28;20200;-82
2023/04/26 23:24:11;;;;;;;10.77;4.10;;;5.30;1.00;;;;;;10437061;28;20237;-83
2023/04/26 23:29:32;;;;;;;11.33;3.73;;;5.20;47.20;;;;;;10454719;28;20245;-83
2023/04/26 23:34:53;;;;;;;9.27;4.13;;;5.10;99.80;;;;;;10396929;28;20237;-84
2023/04/26 23:40:15;;;;;;;11.17;4.47;;;;;;;;;;10432739;28;20220;-84
2023/04/26 23:45:37;;;;;;;9.50;3.83;;;;;;;;;;10436866;28;20193;-83
2023/04/26 23:50:59;;;;;;;8.50;3.40;;;4.90;99.90;;;;;;10420158;28;20204;-82
2023/04/26 23:56:20;;;;;;;10.57;4.27;;;4.80;99.90;;;;;;10424356;28;20251;-83
